Time;durP1;ratioP1;P1;durP2;ratioP2;P2;SDS_P1;SDS_P2;PMS_P1;PMS_P2;Temp;Humidity;BMP_temperature;BMP_pressure;BME280_temperature;BME280_humidity;BME280_pressure;Samples;Min_cycle;Max_cycle;Signal;HPM_P1;HPM_P2
2022/10/04 00:00:59;;;;;;;1.30;0.97;;;;;;;10.86;100.00;96815.19;5062694;28;20197;-83
2022/10/04 00:03:31;;;;;;;1.30;1.00;;;;;;;10.88;100.00;96820.38;5060281;28;20213;-82
2022/10/04 00:06:01;;;;;;;2.00;1.00;;;;;;;10.91;100.00;96822.63;5060313;28;20294;-82
2022/10/04 00:08:36;;;;;;;2.13;1.07;;;;;;;10.93;100.00;96815.94;5060789;28;20217;-83
2022/10/04 00:11:07;;;;;;;2.30;1.00;;;;;;;10.92;100.00;96808.88;5061067;28;20212;-80
2022/10/04 00:13:38;;;;;;;2.63;0.90;;;;;;;10.98;100.00;96818.81;5065084;28;20241;-85
2022/10/04 00:16:07;;;;;;;2.63;0.93;;;;;;;10.89;100.00;96805.78;5061398;28;20229;-77
2022/10/04 00:18:39;;;;;;;1.10;1.00;;;;;;;10.93;100.00;96815.94;5057618;28;20265;-83
2022/10/04 00:21:08;;;;;;;5.27;1.00;;;;;;;10.98;100.00;96817.97;5060905;28;20258;-80
2022/10/04 00:23:47;;;;;;;1.07;1.00;;;;;;;10.96;100.00;96822.81;5057540;28;20205;-84
2022/10/04 00:27:08;;;;;;;1.00;0.90;;;;;;;10.94;100.00;96833.00;5060347;28;20293;-83
2022/10/04 00:29:37;;;;;;;3.27;0.97;;;;;;;10.84;100.00;96827.25;5055957;28;20217;-83
2022/10/04 00:32:30;;;;;;;5.10;1.00;;;;;;;10.84;100.00;96821.84;5057937;28;20203;-78
2022/10/04 00:34:58;;;;;;;1.40;0.90;;;;;;;10.85;100.00;96820.81;5061566;28;20233;-82
2022/10/04 00:37:27;;;;;;;1.60;1.00;;;;;;;10.87;100.00;96816.00;5061952;28;20197;-82
2022/10/04 00:40:09;;;;;;;3.40;1.00;;;;;;;10.81;100.00;96811.47;5055394;28;20205;-81
2022/10/04 00:42:46;;;;;;;1.70;0.90;;;;;;;10.78;100.00;96817.34;5080436;28;20231;-79
2022/10/04 00:45:30;;;;;;;3.93;2.10;;;;;;;10.75;100.00;96821.28;5062230;28;20208;-82
2022/10/04 00:48:31;;;;;;;5.57;3.50;;;;;;;10.69;100.00;96818.66;5050792;28;20222;-82
2022/10/04 00:51:03;;;;;;;8.13;4.60;;;;;;;10.66;100.00;96819.06;5046226;28;20209;-85
2022/10/04 00:53:50;;;;;;;9.90;3.67;;;;;;;10.60;100.00;96816.22;5058755;28;20316;-84
2022/10/04 00:56:24;;;;;;;6.73;3.13;;;;;;;10.63;100.00;96815.75;5061942;28;20205;-83
2022/10/04 00:59:23;;;;;;;9.70;5.17;;;;;;;10.66;100.00;96819.91;5061969;28;20198;-85
2022/10/04 01:01:56;;;;;;;7.70;4.43;;;;;;;10.63;100.00;96826.56;5056717;28;20198;-84
2022/10/04 01:04:40;;;;;;;7.33;3.93;;;;;;;10.54;100.00;96827.06;5064886;28;20259;-79
2022/10/04 01:07:10;;;;;;;5.43;3.17;;;;;;;10.44;100.00;96814.06;5061918;28;20225;-82
2022/10/04 01:09:45;;;;;;;4.10;1.70;;;;;;;10.49;100.00;96829.59;5062689;28;20206;-85
2022/10/04 01:12:22;;;;;;;3.13;2.00;;;;;;;10.48;100.00;96823.34;5061475;28;20199;-83
2022/10/04 01:14:56;;;;;;;4.73;2.40;;;;;;;10.49;100.00;96830.41;5061817;28;20287;-84
2022/10/04 01:17:23;;;;;;;4.70;2.20;;;;;;;10.42;100.00;96835.03;5061688;28;20202;-84
2022/10/04 01:19:54;;;;;;;5.00;1.90;;;;;;;10.39;100.00;96824.66;5065680;28;20213;-83
2022/10/04 01:22:35;;;;;;;3.20;1.80;;;;;;;10.39;100.00;96829.22;5056273;28;20313;-82
2022/10/04 01:25:02;;;;;;;3.50;2.27;;;;;;;10.33;100.00;96825.53;5061170;28;20232;-84
2022/10/04 01:27:41;;;;;;;2.50;1.57;;;;;;;10.30;100.00;96825.97;5061110;28;20205;-78
2022/10/04 01:30:11;;;;;;;2.40;1.20;;;;;;;10.28;100.00;96821.84;5072458;28;20216;-81
2022/10/04 01:32:39;;;;;;;1.73;1.20;;;;;;;10.26;100.00;96824.75;5063960;28;20227;-84
2022/10/04 01:35:09;;;;;;;3.30;1.20;;;;;;;10.23;100.00;96817.06;5062875;28;20206;-83
2022/10/04 01:37:39;;;;;;;1.50;0.80;;;;;;;10.14;100.00;96815.63;5061997;28;20198;-84
2022/10/04 01:40:09;;;;;;;1.53;0.90;;;;;;;10.13;100.00;96819.38;5066124;28;20259;-82
2022/10/04 01:42:43;;;;;;;1.50;0.97;;;;;;;10.14;100.00;96815.63;5066613;28;20264;-78
2022/10/04 01:45:19;;;;;;;3.37;1.03;;;;;;;10.13;100.00;96811.28;5067275;28;20213;-84
2022/10/04 01:47:55;;;;;;;0.90;0.90;;;;;;;10.13;100.00;96814.81;5061137;28;20229;-84
2022/10/04 01:50:28;;;;;;;1.10;1.00;;;;;;;10.12;100.00;96810.47;5050525;28;20205;-83
2022/10/04 01:53:01;;;;;;;3.60;1.03;;;;;;;10.06;100.00;96813.19;5063043;28;20226;-85
2022/10/04 01:55:33;;;;;;;1.60;0.90;;;;;;;10.04;100.00;96808.00;5066494;28;20214;-82
2022/10/04 01:58:07;;;;;;;2.00;0.97;;;;;;;10.04;100.00;96810.72;5066274;28;20256;-82
2022/10/04 02:00:42;;;;;;;1.00;0.90;;;;;;;10.00;100.00;96811.38;5057053;28;20216;-83
2022/10/04 02:03:17;;;;;;;1.30;1.00;;;;;;;9.91;100.00;96810.78;5065172;28;20206;-84
2022/10/04 02:05:52;;;;;;;2.33;1.50;;;;;;;9.86;100.00;96797.13;5066384;28;20205;-85
2022/10/04 02:08:25;;;;;;;0.80;0.80;;;;;;;9.83;100.00;96795.69;5063890;28;20209;-82
2022/10/04 02:10:53;;;;;;;4.57;1.90;;;;;;;9.77;100.00;96798.41;5062499;28;20301;-82
2022/10/04 02:13:24;;;;;;;2.07;1.10;;;;;;;9.60;100.00;96783.75;5064866;28;20221;-84
2022/10/04 02:15:52;;;;;;;2.47;1.10;;;;;;;9.49;100.00;96787.94;5063381;28;20336;-83
2022/10/04 02:18:22;;;;;;;1.03;0.90;;;;;;;9.49;100.00;96796.84;5064586;28;20300;-81
2022/10/04 02:20:51;;;;;;;1.43;1.00;;;;;;;9.43;100.00;96803.09;5064912;28;20205;-82
2022/10/04 02:23:21;;;;;;;1.10;1.00;;;;;;;9.45;100.00;96806.38;5058178;28;20267;-81
2022/10/04 02:25:48;;;;;;;1.10;0.83;;;;;;;9.44;100.00;96806.63;5063350;28;20229;-82
2022/10/04 02:28:17;;;;;;;2.70;1.00;;;;;;;9.43;100.00;96802.28;5062716;28;20205;-82
2022/10/04 02:32:56;;;;;;;3.80;1.10;;;;;;;9.39;100.00;96806.41;5068225;28;20201;-82
2022/10/04 02:33:40;;;;;;;3.77;0.90;;;;;;;9.38;100.00;96810.16;5072002;28;20229;-83
2022/10/04 02:36:09;;;;;;;2.20;0.90;;;;;;;9.36;100.00;96794.19;5057162;28;20205;-83
2022/10/04 02:38:42;;;;;;;1.10;1.00;;;;;;;9.40;100.00;96791.91;5065041;28;20225;-82
2022/10/04 02:41:20;;;;;;;1.07;0.97;;;;;;;9.45;100.00;96794.78;5065253;28;20210;-84
2022/10/04 02:43:53;;;;;;;3.40;1.00;;;;;;;9.53;100.00;96812.63;5063494;28;20229;-81
2022/10/04 02:46:26;;;;;;;0.83;0.83;;;;;;;9.38;100.00;96796.66;5056286;28;20205;-84
2022/10/04 02:48:57;;;;;;;0.83;0.83;;;;;;;9.39;100.00;96803.72;5066222;28;20210;-84
2022/10/04 02:51:28;;;;;;;2.70;1.10;;;;;;;9.47;100.00;96819.66;5065449;28;20216;-82
2022/10/04 02:54:10;;;;;;;2.13;1.10;;;;;;;9.39;100.00;96801.03;5063748;28;20221;-84
2022/10/04 02:56:38;;;;;;;0.90;0.87;;;;;;;9.39;100.00;96809.09;5063045;28;20198;-82
2022/10/04 02:59:07;;;;;;;3.33;0.80;;;;;;;9.38;100.00;96815.53;5061810;28;20221;-83
2022/10/04 03:01:47;;;;;;;3.00;1.17;;;;;;;9.36;100.00;96812.22;5062272;28;20209;-84
2022/10/04 03:04:15;;;;;;;0.80;0.80;;;;;;;9.31;100.00;96812.03;5061349;28;20229;-82
2022/10/04 03:06:45;;;;;;;1.03;1.00;;;;;;;9.25;100.00;96813.72;5062755;28;20202;-81
2022/10/04 03:09:15;;;;;;;1.00;0.90;;;;;;;9.29;100.00;96811.41;5055648;28;20197;-84
2022/10/04 03:11:43;;;;;;;1.77;1.23;;;;;;;9.35;100.00;96813.28;5063240;28;20216;-78
2022/10/04 03:14:20;;;;;;;1.83;1.40;;;;;;;9.32;100.00;96822.59;5054669;28;20287;-83
2022/10/04 03:16:50;;;;;;;4.93;1.30;;;;;;;9.20;100.00;96812.66;5061909;28;20241;-83
2022/10/04 03:19:19;;;;;;;1.77;1.67;;;;;;;9.08;100.00;96802.56;5064749;28;20232;-84
2022/10/04 03:21:49;;;;;;;12.80;3.97;;;;;;;9.16;100.00;96811.44;5064177;28;20232;-84
2022/10/04 03:24:22;;;;;;;11.07;10.00;;;;;;;9.11;100.00;96801.28;5064728;28;20316;-82
2022/10/04 03:26:52;;;;;;;8.00;7.20;;;;;;;9.01;100.00;96806.28;5060031;28;20205;-78
2022/10/04 03:29:23;;;;;;;6.40;4.40;;;;;;;9.00;100.00;96801.94;5059554;28;20206;-80
2022/10/04 03:31:56;;;;;;;8.03;5.80;;;;;;;8.84;100.00;96805.91;5063679;28;20270;-80
2022/10/04 03:34:26;;;;;;;2.87;2.47;;;;;;;8.78;100.00;96805.88;5057698;28;20251;-81
2022/10/04 03:36:57;;;;;;;3.43;2.43;;;;;;;8.73;100.00;96795.75;5065480;28;20209;-81
2022/10/04 03:39:32;;;;;;;3.73;2.60;;;;;;;8.80;100.00;96796.56;5071061;28;20225;-85
2022/10/04 03:42:03;;;;;;;5.33;2.73;;;;;;;8.81;100.00;96798.22;5065323;28;20209;-82
2022/10/04 03:44:30;;;;;;;1.80;1.60;;;;;;;8.64;100.00;96787.06;5065302;28;20213;-81
2022/10/04 03:46:59;;;;;;;4.57;1.40;;;;;;;8.68;100.00;96787.44;5056555;28;20206;-82
2022/10/04 03:49:33;;;;;;;3.13;1.40;;;;;;;8.65;100.00;96779.81;5079922;28;20308;-82
2022/10/04 03:52:02;;;;;;;2.30;1.70;;;;;;;8.64;100.00;96770.06;5062083;28;20189;-83
2022/10/04 03:54:32;;;;;;;3.93;1.67;;;;;;;8.61;100.00;96770.47;5063281;28;20316;-83
2022/10/04 03:57:00;;;;;;;3.37;1.40;;;;;;;8.44;100.00;96761.16;5058589;28;20210;-80
2022/10/04 03:59:28;;;;;;;1.23;1.13;;;;;;;8.45;100.00;96755.56;5054973;28;20305;-84
2022/10/04 04:02:05;;;;;;;1.50;1.20;;;;;;;8.52;100.00;96774.41;5060943;28;20216;-83
2022/10/04 04:04:43;;;;;;;1.10;1.00;;;;;;;8.60;100.00;96774.19;5080525;28;20205;-80
2022/10/04 04:07:18;;;;;;;4.60;2.60;;;;;;;8.64;100.00;96765.50;5063182;28;20287;-83
2022/10/04 04:09:52;;;;;;;1.20;1.10;;;;;;;8.68;100.00;96755.13;5058903;28;20198;-81
2022/10/04 04:12:24;;;;;;;4.97;1.07;;;;;;;8.74;100.00;96767.78;5063169;28;20229;-79
2022/10/04 04:14:53;;;;;;;3.57;1.10;;;;;;;8.71;100.00;96760.13;5053971;28;20241;-82
2022/10/04 04:17:36;;;;;;;4.23;2.40;;;;;;;8.67;100.00;96753.50;5061783;28;20201;-85
2022/10/04 04:20:07;;;;;;;2.37;1.13;;;;;;;8.64;100.00;96768.22;5060691;28;20237;-81
2022/10/04 04:22:38;;;;;;;1.37;0.97;;;;;;;8.64;100.00;96764.69;5055075;28;20201;-83
2022/10/04 04:25:13;;;;;;;3.50;1.10;;;;;;;8.58;100.00;96750.22;5062899;28;20280;-85
2022/10/04 04:27:43;;;;;;;2.00;1.30;;;;;;;8.61;100.00;96759.72;5066090;28;20217;-81
2022/10/04 04:30:16;;;;;;;1.63;1.03;;;;;;;8.60;100.00;96760.75;5060775;28;20301;-82
2022/10/04 04:32:49;;;;;;;1.30;1.00;;;;;;;8.64;100.00;96759.31;5059064;28;20220;-79
2022/10/04 04:35:25;;;;;;;2.97;1.10;;;;;;;8.60;100.00;96760.75;5049011;28;20237;-83
2022/10/04 04:38:16;;;;;;;1.53;0.90;;;;;;;8.57;100.00;96763.88;5061042;28;20217;-84
2022/10/04 04:40:45;;;;;;;1.30;1.10;;;;;;;8.49;100.00;96756.00;5057183;28;20202;-82
2022/10/04 04:43:17;;;;;;;3.10;1.10;;;;;;;8.52;100.00;96763.63;5063296;28;20222;-85
2022/10/04 04:45:47;;;;;;;2.07;1.73;;;;;;;8.51;100.00;96770.06;5060809;28;20207;-84
2022/10/04 04:48:16;;;;;;;2.23;1.40;;;;;;;8.49;100.00;96770.28;5058684;28;20206;-85
2022/10/04 04:50:50;;;;;;;1.30;1.20;;;;;;;8.62;100.00;96782.91;5053178;28;20205;-81
2022/10/04 04:53:22;;;;;;;2.30;0.90;;;;;;;8.64;100.00;96788.91;5060604;28;20209;-82
2022/10/04 04:55:55;;;;;;;4.50;1.10;;;;;;;8.60;100.00;96784.97;5060076;28;20229;-85
2022/10/04 04:58:26;;;;;;;1.30;1.20;;;;;;;8.51;100.00;96783.50;5061901;28;20224;-84
2022/10/04 05:00:58;;;;;;;3.80;1.53;;;;;;;8.42;100.00;96776.72;5056709;28;20206;-82
2022/10/04 05:03:28;;;;;;;2.60;1.37;;;;;;;8.41;100.00;96783.13;5063285;28;20205;-83
2022/10/04 05:05:59;;;;;;;2.37;1.90;;;;;;;8.30;100.00;96779.97;5061939;28;20206;-82
2022/10/04 05:08:28;;;;;;;1.50;1.40;;;;;;;8.39;100.00;96795.94;5056370;28;20241;-85
2022/10/04 05:11:04;;;;;;;6.20;1.30;;;;;;;8.39;100.00;96804.00;5052372;28;20208;-82
2022/10/04 05:13:39;;;;;;;4.90;1.40;;;;;;;8.35;100.00;96809.78;5058221;28;20217;-83
2022/10/04 05:16:13;;;;;;;1.33;1.23;;;;;;;8.29;100.00;96794.44;5063888;28;20236;-81
2022/10/04 05:18:41;;;;;;;2.07;1.10;;;;;;;8.26;100.00;96784.09;5063652;28;20276;-84
2022/10/04 05:21:13;;;;;;;2.30;1.10;;;;;;;8.24;100.00;96802.31;5064884;28;20201;-84
2022/10/04 05:23:41;;;;;;;1.30;1.10;;;;;;;8.17;100.00;96800.63;5067221;28;20263;-82
2022/10/04 05:26:13;;;;;;;4.43;1.30;;;;;;;8.06;100.00;96796.69;5066420;28;20210;-84
2022/10/04 05:28:43;;;;;;;4.53;2.30;;;;;;;8.08;100.00;96802.66;5055916;28;20289;-81
2022/10/04 05:31:28;;;;;;;3.43;2.03;;;;;;;8.09;100.00;96803.50;5071084;28;20205;-80
2022/10/04 05:33:58;;;;;;;3.63;2.47;;;;;;;8.01;100.00;96801.84;5083322;28;20335;-78
2022/10/04 05:36:41;;;;;;;2.30;1.80;;;;;;;7.97;100.00;96808.66;5082833;28;20252;-76
2022/10/04 05:39:18;;;;;;;4.73;1.90;;;;;;;8.03;100.00;96815.91;5078930;28;20205;-79
2022/10/04 05:41:53;;;;;;;2.13;1.40;;;;;;;8.19;100.00;96826.28;5082053;28;20219;-79
2022/10/04 05:44:26;;;;;;;3.73;1.60;;;;;;;8.18;100.00;96830.00;5057859;28;20204;-83
2022/10/04 05:46:56;;;;;;;2.93;1.57;;;;;;;8.19;100.00;96826.28;5061824;28;20267;-82
2022/10/04 05:49:25;;;;;;;2.67;1.47;;;;;;;8.10;100.00;96822.13;5066340;28;20212;-80
2022/10/04 05:51:55;;;;;;;4.23;1.67;;;;;;;8.14;100.00;96842.22;5061356;28;20201;-81
2022/10/04 05:54:24;;;;;;;2.93;1.83;;;;;;;8.10;100.00;96838.28;5061182;28;20237;-80
2022/10/04 05:57:20;;;;;;;2.53;1.60;;;;;;;8.06;100.00;96831.66;5056375;28;20209;-81
2022/10/04 06:00:05;;;;;;;2.43;1.53;;;;;;;8.06;100.00;96847.78;5057119;28;20206;-84
2022/10/04 06:03:12;;;;;;;4.60;1.40;;;;;;;8.00;100.00;96843.19;5060945;28;20209;-84
2022/10/04 06:05:48;;;;;;;1.83;1.30;;;;;;;8.02;100.00;96840.31;5065584;28;20212;-77
2022/10/04 06:08:34;;;;;;;5.83;1.70;;;;;;;7.97;100.00;96839.06;5087237;28;20209;-77
2022/10/04 06:11:22;;;;;;;1.50;1.40;;;;;;;7.99;100.00;96841.56;5062879;28;20228;-78
2022/10/04 06:14:29;;;;;;;1.63;1.53;;;;;;;8.07;100.00;96848.63;5071526;28;20243;-82
2022/10/04 06:17:15;;;;;;;4.50;2.17;;;;;;;8.10;100.00;96846.34;5074779;28;20232;-76
2022/10/04 06:20:04;;;;;;;3.10;1.20;;;;;;;8.06;100.00;96847.78;5080461;28;20220;-76
2022/10/04 06:22:32;;;;;;;2.03;1.20;;;;;;;8.15;100.00;96849.25;5080676;28;20209;-76
2022/10/04 06:25:05;;;;;;;1.47;1.20;;;;;;;8.13;100.00;96848.63;5078539;28;20205;-78
2022/10/04 06:27:40;;;;;;;2.97;1.60;;;;;;;8.19;100.00;96846.97;5078280;28;20236;-75
2022/10/04 06:30:14;;;;;;;6.00;2.37;;;;;;;8.21;100.00;96851.13;5095682;28;20223;-80
2022/10/04 06:33:20;;;;;;;7.17;2.10;;;;;;;8.17;100.00;96857.09;5078938;28;20186;-77
2022/10/04 06:36:05;;;;;;;4.50;2.27;;;;;;;8.21;100.00;96861.91;5073111;28;20206;-77
2022/10/04 06:38:57;;;;;;;6.23;2.20;;;;;;;8.18;100.00;96869.53;5086932;28;20228;-77
2022/10/04 06:42:02;;;;;;;2.57;1.60;;;;;;;8.19;100.00;96857.75;5083226;28;20213;-78
2022/10/04 06:44:48;;;;;;;2.43;1.50;;;;;;;8.20;100.00;96865.63;5077283;28;20205;-75
2022/10/04 06:47:34;;;;;;;2.43;1.33;;;;;;;8.26;100.00;96866.66;5072591;28;20209;-77
2022/10/04 06:50:13;;;;;;;4.03;1.77;;;;;;;8.28;100.00;96851.16;5077352;28;20201;-77
2022/10/04 06:53:15;;;;;;;2.30;1.40;;;;;;;8.34;100.00;96861.94;5069517;28;20209;-80
2022/10/04 06:56:06;;;;;;;2.47;1.97;;;;;;;8.37;100.00;96870.66;5076205;28;20212;-78
2022/10/04 06:58:56;;;;;;;2.30;1.93;;;;;;;8.29;100.00;96853.63;5077051;28;20259;-77
2022/10/04 07:01:28;;;;;;;1.47;1.33;;;;;;;8.38;100.00;96866.94;5091203;28;20229;-78
2022/10/04 07:04:06;;;;;;;3.97;1.57;;;;;;;8.42;100.00;96869.00;5066891;28;20217;-77
2022/10/04 07:06:41;;;;;;;7.43;1.63;;;;;;;8.35;100.00;96857.41;5076322;28;20197;-76
2022/10/04 07:09:20;;;;;;;2.30;1.20;;;;;;;8.45;100.00;96873.16;5073583;28;20193;-76
2022/10/04 07:12:15;;;;;;;2.17;1.27;;;;;;;8.45;100.00;96859.69;5076297;28;20221;-77
2022/10/04 07:14:47;;;;;;;3.73;1.40;;;;;;;8.48;100.00;96867.38;5071406;28;20244;-76
2022/10/04 07:17:22;;;;;;;3.40;1.70;;;;;;;8.52;100.00;96872.13;5074907;28;20209;-76
2022/10/04 07:19:56;;;;;;;2.57;1.60;;;;;;;8.50;100.00;96871.53;5075768;28;20202;-79
2022/10/04 07:22:30;;;;;;;2.90;1.70;;;;;;;8.44;100.00;96866.94;5076729;28;20197;-79
2022/10/04 07:25:07;;;;;;;4.00;1.60;;;;;;;8.48;100.00;96883.53;5074191;28;20308;-76
2022/10/04 07:27:37;;;;;;;1.40;1.30;;;;;;;8.35;100.00;96869.00;5074929;28;20221;-80
2022/10/04 07:30:06;;;;;;;1.83;1.40;;;;;;;8.53;100.00;96883.72;5075114;28;20281;-75
2022/10/04 07:32:37;;;;;;;3.73;1.40;;;;;;;8.55;100.00;96890.56;5076479;28;20305;-76
2022/10/04 07:35:16;;;;;;;5.33;1.57;;;;;;;8.68;100.00;96903.22;5076331;28;20224;-79
2022/10/04 07:37:51;;;;;;;2.43;1.60;;;;;;;8.66;100.00;96883.75;5090544;28;20245;-78
2022/10/04 07:40:24;;;;;;;2.30;1.40;;;;;;;8.86;100.00;96902.63;5072957;28;20205;-79
2022/10/04 07:42:58;;;;;;;1.50;1.40;;;;;;;8.89;100.00;96892.28;5067164;28;20250;-75
2022/10/04 07:45:31;;;;;;;1.77;1.33;;;;;;;8.98;100.00;96896.41;5076503;28;20209;-77
2022/10/04 07:48:12;;;;;;;1.83;1.50;;;;;;;8.96;100.00;96887.72;5076782;28;20218;-76
2022/10/04 07:50:48;;;;;;;2.67;1.50;;;;;;;9.05;100.00;96874.88;5077929;28;20194;-76
2022/10/04 07:53:18;;;;;;;2.60;1.80;;;;;;;9.13;100.00;96871.13;5075499;28;20236;-75
2022/10/04 07:55:57;;;;;;;2.00;1.80;;;;;;;9.21;100.00;96868.22;5077224;28;20224;-76
2022/10/04 07:58:40;;;;;;;2.13;1.80;;;;;;;9.29;100.00;96885.00;5077734;28;20205;-76
2022/10/04 08:01:17;;;;;;;1.70;1.40;;;;;;;9.37;100.00;96873.16;5067058;28;20206;-78
2022/10/04 08:03:57;;;;;;;5.63;1.60;;;;;;;9.50;100.00;96867.78;5078243;28;20205;-75
2022/10/04 08:06:33;;;;;;;1.90;1.70;;;;;;;9.51;100.00;96874.81;5076657;28;20256;-75
2022/10/04 08:09:31;;;;;;;1.20;1.10;;;;;;;9.67;100.00;96882.44;5079297;28;20224;-78
2022/10/04 08:12:07;;;;;;;4.10;1.50;;;;;;;9.68;100.00;96867.09;5079841;28;20200;-78
2022/10/04 08:14:57;;;;;;;1.97;1.40;;;;;;;9.77;100.00;96868.53;5072835;28;20213;-75
2022/10/04 08:17:40;;;;;;;1.37;1.03;;;;;;;9.83;100.00;96851.50;5081663;28;20204;-76
2022/10/04 08:20:25;;;;;;;3.10;1.20;;;;;;;9.99;100.00;96834.00;5080310;28;20201;-77
2022/10/04 08:23:05;;;;;;;2.33;1.30;;;;;;;10.21;100.00;96852.38;5079723;28;20220;-77
2022/10/04 08:25:42;;;;;;;2.07;1.10;;;;;;;10.37;100.00;96852.94;5080062;28;20200;-80
2022/10/04 08:31:21;;;;;;;1.77;1.10;;;;;;;10.66;100.00;96840.69;5077875;28;20260;-79
2022/10/04 08:34:01;;;;;;;1.50;1.20;;;;;;;10.83;100.00;96839.09;5082275;28;20232;-78
2022/10/04 08:36:45;;;;;;;1.23;1.13;;;;;;;11.07;100.00;96843.69;5088463;28;20285;-79
2022/10/04 08:39:36;;;;;;;2.50;1.43;;;;;;;11.22;100.00;96819.03;5091860;28;20174;-76
2022/10/04 08:42:33;;;;;;;2.97;1.23;;;;;;;11.41;100.00;96830.66;5085637;28;20201;-77
2022/10/04 08:45:33;;;;;;;4.47;1.50;;;;;;;11.65;100.00;96833.31;5080943;28;20209;-78
2022/10/04 08:48:32;;;;;;;3.53;3.17;;;;;;;11.93;100.00;96827.41;5086728;28;20216;-81
2022/10/04 08:51:22;;;;;;;2.70;2.10;;;;;;;11.95;100.00;96838.00;5088889;28;20198;-79
2022/10/04 08:54:18;;;;;;;1.77;1.67;;;;;;;12.01;100.00;96821.69;5084564;28;20204;-81
2022/10/04 08:57:13;;;;;;;1.17;1.07;;;;;;;12.16;100.00;96831.31;5086156;28;20235;-78
2022/10/04 09:00:11;;;;;;;2.17;1.17;;;;;;;12.15;100.00;96825.06;5102184;28;20216;-81
2022/10/04 09:03:06;;;;;;;2.50;1.30;;;;;;;12.35;100.00;96835.59;5079968;28;20202;-80
2022/10/04 09:05:57;;;;;;;1.20;1.10;;;;;;;12.45;100.00;96838.59;5092094;28;20194;-76
2022/10/04 09:09:05;;;;;;;3.27;1.17;;;;;;;12.59;100.00;96842.75;5092352;28;20277;-79
2022/10/04 09:11:48;;;;;;;2.03;1.40;;;;;;;12.83;100.00;96863.47;5089918;28;20208;-80
2022/10/04 09:14:41;;;;;;;2.00;1.47;;;;;;;12.92;100.00;96863.13;5077459;28;20248;-78
2022/10/04 09:17:20;;;;;;;3.97;1.70;;;;;;;13.05;100.00;96869.16;5083211;28;20428;-79
2022/10/04 09:19:55;;;;;;;1.40;1.30;;;;;;;13.03;100.00;96881.28;5087375;28;20198;-78
2022/10/04 09:22:46;;;;;;;1.87;1.50;;;;;;;13.03;100.00;96875.88;5085107;28;20221;-79
2022/10/04 09:25:48;;;;;;;4.10;1.60;;;;;;;13.23;100.00;96876.41;5088933;28;20222;-77
2022/10/04 09:28:51;;;;;;;4.63;2.50;;;;;;;13.41;100.00;96876.31;5083767;28;20205;-77
2022/10/04 09:31:43;;;;;;;3.90;2.20;;;;;;;13.71;100.00;96886.22;5082705;28;20246;-77
2022/10/04 09:34:33;;;;;;;5.60;2.00;;;;;;;13.75;100.00;96871.13;5088676;28;20312;-77
2022/10/04 09:37:22;;;;;;;2.00;1.83;;;;;;;13.84;100.00;96862.38;5088583;28;20233;-78
2022/10/04 09:40:33;;;;;;;2.67;2.23;;;;;;;14.01;100.00;96873.31;5092665;28;20186;-77
2022/10/04 09:43:20;;;;;;;4.03;1.60;;;;;;;14.17;100.00;96888.03;5043352;28;20236;-77
2022/10/04 09:46:04;;;;;;;3.23;1.80;;;;;;;14.24;100.00;96877.88;5083999;28;20197;-80
2022/10/04 09:48:40;;;;;;;4.73;1.70;;;;;;;14.27;100.00;96872.78;5076318;28;20232;-79
2022/10/04 09:51:44;;;;;;;3.70;1.40;;;;;;;14.37;100.00;96889.28;5082211;28;20253;-80
2022/10/04 09:54:23;;;;;;;2.43;1.47;;;;;;;14.37;100.00;96891.19;5087933;28;20212;-76
2022/10/04 09:57:04;;;;;;;1.50;1.37;;;;;;;14.41;100.00;96884.22;5089377;28;20212;-78
2022/10/04 10:00:05;;;;;;;3.47;1.87;;;;;;;14.61;100.00;96876.47;5089326;28;20198;-78
2022/10/04 10:03:16;;;;;;;3.07;1.70;;;;;;;14.64;100.00;96859.66;5074762;28;20209;-78
2022/10/04 10:06:15;;;;;;;1.97;1.70;;;;;;;14.78;100.00;96854.78;5082461;28;20241;-78
2022/10/04 10:08:57;;;;;;;2.70;1.77;;;;;;;14.99;99.01;96867.66;5102179;28;20265;-79
2022/10/04 10:14:46;;;;;;;2.77;1.87;;;;;;;15.01;100.00;96862.78;5074427;28;20245;-77
2022/10/04 10:17:19;;;;;;;1.87;1.63;;;;;;;15.35;99.77;96858.19;5089371;28;20220;-77
2022/10/04 10:20:15;;;;;;;1.93;1.40;;;;;;;15.48;94.33;96846.16;5076683;28;20214;-78
2022/10/04 10:23:12;;;;;;;2.73;1.40;;;;;;;15.41;94.43;96853.63;5076673;28;20302;-81
2022/10/04 10:25:48;;;;;;;2.80;1.30;;;;;;;15.28;95.93;96851.28;5082469;28;20208;-76
2022/10/04 10:28:36;;;;;;;1.83;1.50;;;;;;;15.46;95.28;96851.84;5084421;28;20212;-77
2022/10/04 10:31:22;;;;;;;1.80;1.50;;;;;;;15.70;95.46;96852.50;5077905;28;20257;-78
2022/10/04 10:34:33;;;;;;;1.63;1.30;;;;;;;15.85;93.83;96847.25;5074260;28;20305;-77
2022/10/04 10:37:08;;;;;;;2.97;1.30;;;;;;;16.19;90.13;96853.44;5040321;28;20234;-77
2022/10/04 10:40:15;;;;;;;2.10;1.47;;;;;;;16.28;90.80;96856.53;5015369;28;20208;-79
2022/10/04 10:43:14;;;;;;;3.00;1.60;;;;;;;16.49;90.64;96854.88;5088221;28;20196;-79
2022/10/04 10:46:06;;;;;;;2.33;1.33;;;;;;;16.68;88.80;96841.72;5072612;28;20305;-78
2022/10/04 10:48:58;;;;;;;1.67;1.57;;;;;;;16.91;87.92;96841.44;5057386;28;20214;-77
2022/10/04 10:51:58;;;;;;;2.77;1.40;;;;;;;17.01;85.45;96836.09;5085088;28;20194;-76
2022/10/04 10:54:59;;;;;;;1.80;1.30;;;;;;;17.08;85.40;96839.44;5061662;28;20201;-79
2022/10/04 10:57:50;;;;;;;3.83;1.40;;;;;;;17.18;84.20;96842.22;5049406;28;20205;-77
2022/10/04 11:00:21;;;;;;;1.27;1.10;;;;;;;17.14;86.17;96838.38;5083655;28;20236;-78
2022/10/04 11:03:04;;;;;;;1.70;1.40;;;;;;;17.22;85.80;96835.16;5082956;28;20209;-77
2022/10/04 11:06:07;;;;;;;4.83;1.40;;;;;;;17.40;83.98;96853.88;5082104;28;20214;-81
2022/10/04 11:09:07;;;;;;;9.30;1.80;;;;;;;17.27;85.59;96848.84;5070007;28;20197;-80
2022/10/04 11:11:59;;;;;;;1.50;1.40;;;;;;;17.21;85.28;96852.63;5084700;28;20233;-79
2022/10/04 11:14:50;;;;;;;1.20;1.10;;;;;;;17.25;82.53;96845.56;5085009;28;20519;-80
2022/10/04 11:17:29;;;;;;;3.43;1.40;;;;;;;17.29;82.71;96849.41;5082042;28;20221;-80
2022/10/04 11:20:39;;;;;;;2.33;1.60;;;;;;;17.35;84.40;96856.56;5072371;28;20236;-80
2022/10/04 11:23:50;;;;;;;2.03;1.40;;;;;;;17.28;83.81;96828.66;5046819;28;20202;-77
2022/10/04 11:27:03;;;;;;;3.97;1.57;;;;;;;17.38;83.60;96833.38;5027851;28;20194;-79
2022/10/04 11:30:03;;;;;;;1.40;1.30;;;;;;;17.35;84.49;96826.53;5090186;28;20223;-81
2022/10/04 11:33:16;;;;;;;2.80;1.60;;;;;;;17.54;83.26;96821.47;5087339;28;20190;-78
2022/10/04 11:36:06;;;;;;;1.33;1.23;;;;;;;17.84;82.52;96836.47;5084611;28;20229;-79
2022/10/04 11:39:02;;;;;;;1.50;1.40;;;;;;;18.10;82.46;96822.66;5084906;28;20231;-79
2022/10/04 11:41:46;;;;;;;2.40;1.80;;;;;;;18.25;81.57;96834.75;5081626;28;20214;-77
2022/10/04 11:44:40;;;;;;;1.70;1.60;;;;;;;18.34;80.48;96830.41;5086086;28;20244;-79
2022/10/04 11:47:21;;;;;;;4.00;2.00;;;;;;;18.26;81.05;96822.72;5083748;28;20214;-76
2022/10/04 11:50:03;;;;;;;4.80;1.80;;;;;;;18.21;82.96;96830.88;5087306;28;20229;-77
2022/10/04 11:53:17;;;;;;;1.90;1.50;;;;;;;18.20;82.05;96819.16;5085594;28;20205;-79
2022/10/04 11:56:15;;;;;;;4.20;1.80;;;;;;;18.30;81.34;96807.41;5078721;28;20263;-78
2022/10/04 11:59:00;;;;;;;4.13;1.97;;;;;;;18.07;82.45;96811.44;5057280;28;20213;-77
2022/10/04 12:02:01;;;;;;;1.93;1.60;;;;;;;18.07;83.63;96795.88;5077081;28;20209;-78
2022/10/04 12:04:47;;;;;;;3.03;1.60;;;;;;;18.43;81.04;96796.81;5051193;28;20189;-80
2022/10/04 12:07:45;;;;;;;3.47;1.50;;;;;;;18.70;78.62;96793.91;5080630;28;20198;-79
2022/10/04 12:10:23;;;;;;;1.77;1.67;;;;;;;18.81;78.29;96798.28;5070947;28;20213;-82
2022/10/04 12:13:14;;;;;;;1.80;1.70;;;;;;;18.80;76.40;96785.69;5080711;28;20282;-81
2022/10/04 12:15:52;;;;;;;2.43;1.90;;;;;;;18.92;78.58;96798.31;5068646;28;20248;-81
2022/10/04 12:18:45;;;;;;;1.75;1.65;;;;;;;19.09;78.30;96794.22;5079031;28;20201;-77
2022/10/04 12:21:51;;;;;;;5.32;1.92;;;;;;;19.10;76.75;96786.81;5087782;28;20201;-78
2022/10/04 12:24:47;;;;;;;2.33;1.75;;;;;;;19.05;76.28;96797.78;5095003;28;20210;-79
2022/10/04 12:27:33;;;;;;;2.10;1.70;;;;;;;18.94;76.76;96796.13;5088632;28;20235;-80
2022/10/04 12:30:22;;;;;;;3.13;1.67;;;;;;;18.76;78.81;96779.13;5089215;28;20185;-77
2022/10/04 12:33:09;;;;;;;4.30;1.63;;;;;;;18.89;76.94;96773.13;5088420;28;20212;-78
2022/10/04 12:36:00;;;;;;;1.88;1.65;;;;;;;19.02;74.73;96765.47;5084406;28;20397;-79
2022/10/04 12:38:49;;;;;;;3.65;1.88;;;;;;;19.30;74.59;96772.31;5086818;28;20228;-78
2022/10/04 12:41:31;;;;;;;5.10;2.30;;;;;;;19.58;75.25;96764.34;5080964;28;20213;-79